createdAt,value
2023-02-14T00:00:49.853Z,1009.17
2023-02-14T00:01:50.720Z,1009.21
2023-02-14T00:02:52.156Z,1009.17
2023-02-14T00:03:53.215Z,1009.16
2023-02-14T00:04:54.534Z,1009.18
2023-02-14T00:05:55.468Z,1009.13
2023-02-14T00:06:56.391Z,1009.14
2023-02-14T00:07:57.286Z,1009.13
2023-02-14T00:08:58.193Z,1009.07
2023-02-14T00:10:01.814Z,1009.11
2023-02-14T00:11:00.847Z,1009.11
2023-02-14T00:12:01.871Z,1009.08
2023-02-14T00:13:02.793Z,1009.06
2023-02-14T00:14:07.249Z,1009.06
2023-02-14T00:15:04.958Z,1009.04
2023-02-14T00:16:06.188Z,1009.08
2023-02-14T00:17:07.171Z,1009.04
2023-02-14T00:18:08.162Z,1009.05
2023-02-14T00:19:09.088Z,1009.08
2023-02-14T00:20:09.960Z,1009.1
2023-02-14T00:21:10.878Z,1009.06
2023-02-14T00:22:11.762Z,1009.1
2023-02-14T00:23:12.630Z,1009.07
2023-02-14T00:24:13.525Z,1009.1
2023-02-14T00:25:14.413Z,1009.12
2023-02-14T00:26:15.669Z,1009.1
2023-02-14T00:27:16.630Z,1009.16
2023-02-14T00:28:17.506Z,1009.14
2023-02-14T00:29:18.405Z,1009.13
2023-02-14T00:30:19.680Z,1009.21
2023-02-14T00:31:21.110Z,1009.22
2023-02-14T00:32:22.077Z,1009.16
2023-02-14T00:33:23.058Z,1009.21
2023-02-14T00:34:24.032Z,1009.21
2023-02-14T00:35:25.004Z,1009.16
2023-02-14T00:36:25.877Z,1009.15
2023-02-14T00:37:26.778Z,1009.09
2023-02-14T00:38:27.651Z,1009.11
2023-02-14T00:39:28.571Z,1009.1
2023-02-14T00:40:29.487Z,1009.12
2023-02-14T00:41:30.381Z,1009.09
2023-02-14T00:42:31.270Z,1009.15
2023-02-14T00:43:32.201Z,1009.1
2023-02-14T00:44:33.098Z,1009.07
2023-02-14T00:45:34.364Z,1009.07
2023-02-14T00:46:35.395Z,1009.08
2023-02-14T00:47:36.292Z,1009.08
2023-02-14T00:48:37.252Z,1009.06
2023-02-14T00:49:38.133Z,1009.11
2023-02-14T00:50:39.032Z,1009.07
2023-02-14T00:51:39.974Z,1009.14
2023-02-14T00:52:40.978Z,1009.15
2023-02-14T00:53:41.858Z,1009.14
2023-02-14T00:54:42.889Z,1009.12
2023-02-14T00:55:43.809Z,1009.1
2023-02-14T00:56:44.696Z,1009.11
2023-02-14T00:57:45.625Z,1009.13
2023-02-14T00:58:46.559Z,1009.13
2023-02-14T00:59:47.452Z,1009.12
2023-02-14T01:00:48.691Z,1009.16
2023-02-14T01:01:49.713Z,1009.16
2023-02-14T01:02:51.055Z,1009.18
2023-02-14T01:03:52.168Z,1009.13
2023-02-14T01:04:53.139Z,1009.1
2023-02-14T01:05:54.012Z,1009.11
2023-02-14T01:06:54.933Z,1009.14
2023-02-14T01:07:55.885Z,1009.15
2023-02-14T01:08:56.780Z,1009.15
2023-02-14T01:09:57.660Z,1009.14
2023-02-14T01:10:59.805Z,1009.19
2023-02-14T01:12:00.977Z,1009.22
2023-02-14T01:13:01.902Z,1009.18
2023-02-14T01:14:02.772Z,1009.15
2023-02-14T01:15:03.687Z,1009.19
2023-02-14T01:16:04.831Z,1009.21
2023-02-14T01:17:05.784Z,1009.2
2023-02-14T01:18:06.666Z,1009.16
2023-02-14T01:19:07.763Z,1009.17
2023-02-14T01:20:08.708Z,1009.15
2023-02-14T01:21:09.629Z,1009.17
2023-02-14T01:22:10.517Z,1009.18
2023-02-14T01:23:11.408Z,1009.2
2023-02-14T01:24:12.274Z,1009.15
2023-02-14T01:25:13.184Z,1009.13
2023-02-14T01:26:14.703Z,1009.16
2023-02-14T01:27:15.591Z,1009.13
2023-02-14T01:28:16.465Z,1009.14
2023-02-14T01:29:17.386Z,1009.09
2023-02-14T01:30:18.784Z,1009.12
2023-02-14T01:31:20.423Z,1009.09
2023-02-14T01:32:21.745Z,1009.06
2023-02-14T01:33:22.675Z,1009.06
2023-02-14T01:34:23.622Z,1009.11
2023-02-14T01:35:24.500Z,1009.09
2023-02-14T01:36:25.436Z,1009.13
2023-02-14T01:37:26.413Z,1009.12
2023-02-14T01:38:27.302Z,1009.12
2023-02-14T01:39:28.201Z,1009.14
2023-02-14T01:40:29.066Z,1009.08
2023-02-14T01:41:30.180Z,1009.11
2023-02-14T01:42:31.148Z,1009.1
2023-02-14T01:43:32.078Z,1009.14
2023-02-14T01:44:32.982Z,1009.07
2023-02-14T01:45:34.010Z,1009.06
2023-02-14T01:46:34.978Z,1009.08
2023-02-14T01:47:35.886Z,1009.07
2023-02-14T01:48:36.830Z,1009.11
2023-02-14T01:49:37.799Z,1009.04
2023-02-14T01:50:38.683Z,1009.05
2023-02-14T01:51:39.762Z,1009.03
2023-02-14T01:52:40.656Z,1009.09
2023-02-14T01:53:41.558Z,1009.03
2023-02-14T01:54:42.465Z,1009.02
2023-02-14T01:55:43.375Z,1009.05
2023-02-14T01:56:44.247Z,1009.03
2023-02-14T01:57:45.168Z,1009.06
2023-02-14T01:58:46.062Z,1009.07
2023-02-14T01:59:46.952Z,1009.05
2023-02-14T02:00:48.030Z,1009.09
2023-02-14T02:01:48.989Z,1009.08
2023-02-14T02:02:49.894Z,1009.05
2023-02-14T02:03:51.011Z,1009.07
2023-02-14T02:04:52.256Z,1009.12
2023-02-14T02:05:53.322Z,1009.07
2023-02-14T02:06:54.251Z,1009.08
2023-02-14T02:07:55.134Z,1009.07
2023-02-14T02:08:56.031Z,1009.05
2023-02-14T02:09:56.901Z,1009
2023-02-14T02:10:59.199Z,1009.04
2023-02-14T02:12:00.332Z,1009.02
2023-02-14T02:13:01.253Z,1009.04
2023-02-14T02:14:02.178Z,1009.01
2023-02-14T02:15:03.108Z,1009.05
2023-02-14T02:16:03.986Z,1009.05
2023-02-14T02:17:04.885Z,1009.05
2023-02-14T02:18:05.783Z,1008.99
2023-02-14T02:19:06.680Z,1009.03
2023-02-14T02:20:07.767Z,1009
2023-02-14T02:21:08.639Z,1009.01
2023-02-14T02:22:09.512Z,1008.95
2023-02-14T02:23:10.375Z,1008.99
2023-02-14T02:24:11.298Z,1008.98
2023-02-14T02:25:12.186Z,1008.98
2023-02-14T02:26:13.078Z,1008.94
2023-02-14T02:27:13.962Z,1008.95
2023-02-14T02:28:14.842Z,1008.9
2023-02-14T02:29:15.768Z,1008.93
2023-02-14T02:30:16.925Z,1008.91
2023-02-14T02:31:18.292Z,1008.91
2023-02-14T02:32:19.315Z,1008.91
2023-02-14T02:33:20.210Z,1008.93
2023-02-14T02:34:21.098Z,1008.92
2023-02-14T02:35:22.185Z,1008.99
2023-02-14T02:36:23.062Z,1008.99
2023-02-14T02:37:23.979Z,1008.98
2023-02-14T02:38:25.394Z,1009
2023-02-14T02:39:26.269Z,1008.98
2023-02-14T02:40:27.157Z,1008.95
2023-02-14T02:41:28.131Z,1009.02
2023-02-14T02:42:29.080Z,1009.03
2023-02-14T02:43:30.040Z,1008.98
2023-02-14T02:44:30.932Z,1009.03
2023-02-14T02:45:31.942Z,1009.01
2023-02-14T02:46:32.833Z,1009.02
2023-02-14T02:47:33.742Z,1009.04
2023-02-14T02:48:34.658Z,1009.04
2023-02-14T02:49:35.592Z,1009.05
2023-02-14T02:50:36.646Z,1009.05
2023-02-14T02:51:37.541Z,1009.05
2023-02-14T02:52:38.448Z,1009.02
2023-02-14T02:53:39.414Z,1009.01
2023-02-14T02:54:40.383Z,1009
2023-02-14T02:55:41.298Z,1008.98
2023-02-14T02:56:42.239Z,1008.97
2023-02-14T02:57:43.157Z,1008.93
2023-02-14T02:58:44.051Z,1008.94
2023-02-14T02:59:44.942Z,1008.94
2023-02-14T03:00:45.826Z,1008.89
2023-02-14T03:01:47.108Z,1008.91
2023-02-14T03:02:48.060Z,1008.93
2023-02-14T03:03:48.948Z,1008.89
2023-02-14T03:04:50.110Z,1008.89
2023-02-14T03:05:51.284Z,1008.9
2023-02-14T03:06:52.164Z,1008.92
2023-02-14T03:07:53.064Z,1008.92
2023-02-14T03:08:53.969Z,1008.94
2023-02-14T03:09:54.865Z,1008.93
2023-02-14T03:10:55.755Z,1008.92
2023-02-14T03:11:56.637Z,1008.95
2023-02-14T03:12:57.533Z,1008.9
2023-02-14T03:13:58.437Z,1008.87
2023-02-14T03:14:59.338Z,1008.97
2023-02-14T03:16:00.722Z,1008.93
2023-02-14T03:17:01.654Z,1008.92
2023-02-14T03:18:02.556Z,1008.96
2023-02-14T03:19:03.602Z,1008.97
2023-02-14T03:20:04.483Z,1008.99
2023-02-14T03:21:05.503Z,1009
2023-02-14T03:22:06.415Z,1008.98
2023-02-14T03:23:07.287Z,1009
2023-02-14T03:24:08.185Z,1009.01
2023-02-14T03:25:09.130Z,1009.02
2023-02-14T03:26:10.080Z,1009.04
2023-02-14T03:27:11.014Z,1009.03
2023-02-14T03:28:11.957Z,1009.01
2023-02-14T03:29:12.886Z,1009.02
2023-02-14T03:30:14.170Z,1009
2023-02-14T03:31:15.885Z,1009.01
2023-02-14T03:32:17.685Z,1009
2023-02-14T03:33:18.727Z,1009.01
2023-02-14T03:34:19.608Z,1009.01
2023-02-14T03:35:20.518Z,1009
2023-02-14T03:36:21.576Z,1008.99
2023-02-14T03:37:22.532Z,1008.97
2023-02-14T03:38:23.394Z,1008.98
2023-02-14T03:39:24.317Z,1009.01
2023-02-14T03:40:25.253Z,1008.95
2023-02-14T03:41:26.146Z,1008.97
2023-02-14T03:42:27.050Z,1008.95
2023-02-14T03:43:27.981Z,1008.92
2023-02-14T03:44:28.848Z,1008.94
2023-02-14T03:45:30.172Z,1008.9
2023-02-14T03:46:31.655Z,1008.92
2023-02-14T03:47:32.732Z,1008.95
2023-02-14T03:48:33.624Z,1008.91
2023-02-14T03:49:34.502Z,1008.98
2023-02-14T03:50:35.362Z,1008.99
2023-02-14T03:51:36.388Z,1008.96
2023-02-14T03:52:37.315Z,1008.97
2023-02-14T03:53:38.201Z,1008.93
2023-02-14T03:54:39.080Z,1008.91
2023-02-14T03:55:40.079Z,1008.94
2023-02-14T03:56:40.940Z,1008.93
2023-02-14T03:57:41.853Z,1008.94
2023-02-14T03:58:42.751Z,1008.93
2023-02-14T03:59:43.656Z,1008.9
2023-02-14T04:00:44.605Z,1008.89
2023-02-14T04:01:45.855Z,1008.96
2023-02-14T04:02:46.929Z,1008.88
2023-02-14T04:03:48.228Z,1008.92
2023-02-14T04:04:49.217Z,1008.89
2023-02-14T04:05:50.142Z,1008.92
2023-02-14T04:06:51.256Z,1008.86
2023-02-14T04:07:52.278Z,1008.89
2023-02-14T04:08:53.197Z,1008.92
2023-02-14T04:09:54.149Z,1008.9
2023-02-14T04:10:55.226Z,1008.92
2023-02-14T04:11:56.152Z,1008.85
2023-02-14T04:12:57.099Z,1008.88
2023-02-14T04:13:58.022Z,1008.89
2023-02-14T04:14:58.940Z,1008.88
2023-02-14T04:16:00.200Z,1008.86
2023-02-14T04:17:01.184Z,1008.9
2023-02-14T04:18:02.146Z,1008.86
2023-02-14T04:19:03.091Z,1008.86
2023-02-14T04:20:04.035Z,1008.89
2023-02-14T04:21:04.970Z,1008.91
2023-02-14T04:22:05.984Z,1008.91
2023-02-14T04:23:06.896Z,1008.92
2023-02-14T04:24:07.830Z,1008.92
2023-02-14T04:25:08.850Z,1008.9
2023-02-14T04:26:09.783Z,1008.88
2023-02-14T04:27:11.407Z,1008.85
2023-02-14T04:28:12.323Z,1008.85
2023-02-14T04:29:13.234Z,1008.84
2023-02-14T04:30:14.559Z,1008.85
2023-02-14T04:31:16.262Z,1008.82
2023-02-14T04:32:17.521Z,1008.81
2023-02-14T04:33:18.450Z,1008.79
2023-02-14T04:34:19.328Z,1008.8
2023-02-14T04:35:20.266Z,1008.77
2023-02-14T04:36:21.184Z,1008.78
2023-02-14T04:37:22.144Z,1008.76
2023-02-14T04:38:23.045Z,1008.77
2023-02-14T04:39:23.948Z,1008.76
2023-02-14T04:40:24.854Z,1008.75
2023-02-14T04:41:25.752Z,1008.78
2023-02-14T04:42:26.649Z,1008.76
2023-02-14T04:43:27.542Z,1008.81
2023-02-14T04:44:28.479Z,1008.82
2023-02-14T04:45:29.389Z,1008.85
2023-02-14T04:46:30.605Z,1008.79
2023-02-14T04:47:34.070Z,1008.79
2023-02-14T04:48:31.786Z,1008.79
2023-02-14T04:49:32.668Z,1008.76
2023-02-14T04:50:33.584Z,1008.77
2023-02-14T04:51:34.461Z,1008.79
2023-02-14T04:52:35.571Z,1008.79
2023-02-14T04:53:36.478Z,1008.84
2023-02-14T04:54:37.435Z,1008.78
2023-02-14T04:55:38.495Z,1008.8
2023-02-14T04:56:39.642Z,1008.81
2023-02-14T04:57:40.596Z,1008.77
2023-02-14T04:58:41.537Z,1008.82
2023-02-14T04:59:42.486Z,1008.77
2023-02-14T05:00:43.752Z,1008.83
2023-02-14T05:01:45.048Z,1008.8
2023-02-14T05:02:46.026Z,1008.78
2023-02-14T05:03:46.972Z,1008.78
2023-02-14T05:04:50.159Z,1008.72
2023-02-14T05:05:51.102Z,1008.71
2023-02-14T05:06:52.015Z,1008.77
2023-02-14T05:07:53.082Z,1008.75
2023-02-14T05:08:54.005Z,1008.74
2023-02-14T05:09:54.917Z,1008.75
2023-02-14T05:10:56.012Z,1008.74
2023-02-14T05:11:57.019Z,1008.73
2023-02-14T05:12:57.964Z,1008.73
2023-02-14T05:13:58.876Z,1008.75
2023-02-14T05:14:59.793Z,1008.76
2023-02-14T05:16:01.011Z,1008.78
2023-02-14T05:17:01.970Z,1008.75
2023-02-14T05:18:03.052Z,1008.69
2023-02-14T05:19:04.049Z,1008.76
2023-02-14T05:20:04.976Z,1008.72
2023-02-14T05:21:05.885Z,1008.77
2023-02-14T05:22:06.812Z,1008.75
2023-02-14T05:23:07.894Z,1008.75
2023-02-14T05:24:08.935Z,1008.78
2023-02-14T05:25:09.900Z,1008.75
2023-02-14T05:26:10.835Z,1008.78
2023-02-14T05:27:11.788Z,1008.77
2023-02-14T05:28:12.702Z,1008.79
2023-02-14T05:29:13.614Z,1008.74
2023-02-14T05:30:14.856Z,1008.74
2023-02-14T05:31:16.510Z,1008.76
2023-02-14T05:32:17.866Z,1008.73
2023-02-14T05:33:18.861Z,1008.71
2023-02-14T05:34:22.194Z,1008.68
2023-02-14T05:35:19.894Z,1008.67
2023-02-14T05:36:20.777Z,1008.74
2023-02-14T05:37:21.654Z,1008.74
2023-02-14T05:38:22.679Z,1008.73
2023-02-14T05:39:23.581Z,1008.73
2023-02-14T05:41:25.183Z,1008.69
2023-02-14T05:42:26.130Z,1008.71
2023-02-14T05:43:27.117Z,1008.71
2023-02-14T05:44:28.071Z,1008.74
2023-02-14T05:45:29.405Z,1008.77
2023-02-14T05:46:30.344Z,1008.76
2023-02-14T05:47:31.266Z,1008.79
2023-02-14T05:48:32.208Z,1008.83
2023-02-14T05:49:33.074Z,1008.88
2023-02-14T05:50:33.956Z,1008.84
2023-02-14T05:51:34.939Z,1008.87
2023-02-14T05:52:35.851Z,1008.91
2023-02-14T05:53:36.914Z,1008.86
2023-02-14T05:54:37.835Z,1008.91
2023-02-14T05:55:39.380Z,1008.87
2023-02-14T05:56:40.273Z,1008.85
2023-02-14T05:57:41.193Z,1008.91
2023-02-14T05:58:42.107Z,1008.89
2023-02-14T05:59:43.000Z,1008.92
2023-02-14T06:00:43.923Z,1008.87
2023-02-14T06:01:45.050Z,1008.91
2023-02-14T06:02:46.077Z,1008.82
2023-02-14T06:03:46.944Z,1008.87
2023-02-14T06:04:48.381Z,1008.91
2023-02-14T06:05:49.393Z,1008.91
2023-02-14T06:06:50.440Z,1008.91
2023-02-14T06:07:51.433Z,1008.91
2023-02-14T06:08:52.466Z,1008.91
2023-02-14T06:09:53.399Z,1008.96
2023-02-14T06:10:54.302Z,1008.93
2023-02-14T06:11:55.738Z,1008.96
2023-02-14T06:12:56.667Z,1008.94
2023-02-14T06:13:57.585Z,1008.87
2023-02-14T06:14:58.486Z,1009
2023-02-14T06:15:59.343Z,1008.98
2023-02-14T06:17:00.717Z,1008.97
2023-02-14T06:18:01.717Z,1008.97
2023-02-14T06:19:02.596Z,1008.96
2023-02-14T06:20:03.489Z,1009.02
2023-02-14T06:21:04.364Z,1008.97
2023-02-14T06:22:05.202Z,1008.93
2023-02-14T06:23:06.166Z,1008.95
2023-02-14T06:24:07.134Z,1008.97
2023-02-14T06:25:08.005Z,1008.94
2023-02-14T06:26:08.890Z,1008.98
2023-02-14T06:27:09.841Z,1008.99
2023-02-14T06:28:10.877Z,1008.95
2023-02-14T06:29:11.968Z,1009.03
2023-02-14T06:30:13.171Z,1009.02
2023-02-14T06:31:14.526Z,1009.01
2023-02-14T06:32:16.063Z,1008.97
2023-02-14T06:33:17.215Z,1009
2023-02-14T06:34:18.127Z,1009.01
2023-02-14T06:35:18.996Z,1008.98
2023-02-14T06:36:19.952Z,1009.01
2023-02-14T06:37:20.890Z,1008.99
2023-02-14T06:38:21.838Z,1009.01
2023-02-14T06:39:22.834Z,1009.05
2023-02-14T06:40:23.766Z,1009.05
2023-02-14T06:41:24.708Z,1009.07
2023-02-14T06:42:25.618Z,1009.09
2023-02-14T06:43:26.531Z,1009.08
2023-02-14T06:44:27.425Z,1009.09
2023-02-14T06:45:28.313Z,1009.09
2023-02-14T06:46:29.478Z,1009.14
2023-02-14T06:47:30.492Z,1009.14
2023-02-14T06:48:31.432Z,1009.17
2023-02-14T06:49:32.343Z,1009.17
2023-02-14T06:50:33.263Z,1009.24
2023-02-14T06:51:34.170Z,1009.2
2023-02-14T06:52:35.087Z,1009.16
2023-02-14T06:53:35.971Z,1009.17
2023-02-14T06:54:36.984Z,1009.17
2023-02-14T06:55:37.874Z,1009.14
2023-02-14T06:56:41.424Z,1009.1
2023-02-14T06:57:39.097Z,1009.13
2023-02-14T06:58:40.051Z,1009.11
2023-02-14T06:59:40.940Z,1009.12
2023-02-14T07:00:41.831Z,1009.13
2023-02-14T07:01:43.087Z,1009.1
2023-02-14T07:02:44.466Z,1009.09
2023-02-14T07:03:45.429Z,1009.04
2023-02-14T07:04:46.331Z,1009.1
2023-02-14T07:05:47.253Z,1009.12
2023-02-14T07:06:48.166Z,1009.1
2023-02-14T07:07:49.057Z,1009.1
2023-02-14T07:08:49.966Z,1009.07
2023-02-14T07:09:50.948Z,1009.09
2023-02-14T07:10:51.886Z,1009.09
2023-02-14T07:11:52.770Z,1009.13
2023-02-14T07:12:53.693Z,1009.1
2023-02-14T07:13:54.581Z,1009.1
2023-02-14T07:14:55.466Z,1009.08
2023-02-14T07:15:56.710Z,1009.07
2023-02-14T07:16:58.165Z,1009.08
2023-02-14T07:17:59.100Z,1009.08
2023-02-14T07:18:59.983Z,1009.03
2023-02-14T07:20:00.918Z,1009.04
2023-02-14T07:21:03.385Z,1009.08
2023-02-14T07:22:04.422Z,1009.05
2023-02-14T07:23:05.334Z,1009.07
2023-02-14T07:24:06.335Z,1009.1
2023-02-14T07:25:07.607Z,1009.07
2023-02-14T07:26:08.599Z,1009.1
2023-02-14T07:27:09.528Z,1009.08
2023-02-14T07:28:10.464Z,1009.08
2023-02-14T07:29:11.358Z,1009.13
2023-02-14T07:30:12.665Z,1009.13
2023-02-14T07:31:14.282Z,1009.11
2023-02-14T07:32:16.132Z,1009.1
2023-02-14T07:33:17.352Z,1009.07
2023-02-14T07:34:18.289Z,1009.1
2023-02-14T07:35:19.179Z,1009.04
2023-02-14T07:36:20.084Z,1009.04
2023-02-14T07:37:21.077Z,1009.03
2023-02-14T07:38:21.979Z,1009.02
2023-02-14T07:39:22.881Z,1009.04
2023-02-14T07:40:23.840Z,1009.05
2023-02-14T07:41:24.779Z,1009.03
2023-02-14T07:42:25.680Z,1009.02
2023-02-14T07:43:26.610Z,1008.99
2023-02-14T07:44:27.585Z,1009.05
2023-02-14T07:45:28.465Z,1009.06
2023-02-14T07:46:29.737Z,1009.03
2023-02-14T07:47:30.671Z,1009
2023-02-14T07:48:34.952Z,1009.07
2023-02-14T07:49:32.698Z,1009.02
2023-02-14T07:50:33.588Z,1009.07
2023-02-14T07:51:34.500Z,1009.1
2023-02-14T07:52:35.343Z,1009.06
2023-02-14T07:53:36.229Z,1009.04
2023-02-14T07:54:37.110Z,1009.03
2023-02-14T07:55:38.178Z,1009.05
2023-02-14T07:56:39.083Z,1009.03
2023-02-14T07:57:39.957Z,1008.98
2023-02-14T07:58:40.825Z,1008.97
2023-02-14T07:59:41.773Z,1009
2023-02-14T08:00:42.652Z,1008.97
2023-02-14T08:01:43.867Z,1008.96
2023-02-14T08:02:44.951Z,1008.98
2023-02-14T08:03:45.816Z,1008.97
2023-02-14T08:04:46.960Z,1008.96
2023-02-14T08:05:47.920Z,1008.96
2023-02-14T08:06:48.795Z,1008.92
2023-02-14T08:07:49.665Z,1008.92
2023-02-14T08:08:50.527Z,1008.85
2023-02-14T08:09:51.412Z,1008.86
2023-02-14T08:10:52.544Z,1008.81
2023-02-14T08:11:53.453Z,1008.85
2023-02-14T08:12:54.409Z,1008.86
2023-02-14T08:13:55.300Z,1008.82
2023-02-14T08:14:56.845Z,1008.8
2023-02-14T08:15:58.259Z,1008.81
2023-02-14T08:16:59.251Z,1008.77
2023-02-14T08:18:00.161Z,1008.72
2023-02-14T08:19:01.164Z,1008.77
2023-02-14T08:20:02.055Z,1008.77
2023-02-14T08:21:03.151Z,1008.75
2023-02-14T08:22:04.067Z,1008.74
2023-02-14T08:23:04.973Z,1008.75
2023-02-14T08:24:05.884Z,1008.76
2023-02-14T08:25:06.798Z,1008.78
2023-02-14T08:26:08.074Z,1008.77
2023-02-14T08:27:08.956Z,1008.76
2023-02-14T08:28:09.856Z,1008.81
2023-02-14T08:29:10.839Z,1008.8
2023-02-14T08:30:12.021Z,1008.8
2023-02-14T08:31:13.418Z,1008.79
2023-02-14T08:32:15.493Z,1008.8
2023-02-14T08:33:16.459Z,1008.82
2023-02-14T08:34:17.341Z,1008.76
2023-02-14T08:35:18.248Z,1008.78
2023-02-14T08:36:19.137Z,1008.78
2023-02-14T08:37:20.061Z,1008.79
2023-02-14T08:38:20.971Z,1008.74
2023-02-14T08:39:21.879Z,1008.75
2023-02-14T08:40:22.764Z,1008.81
2023-02-14T08:41:23.966Z,1008.72
2023-02-14T08:42:24.853Z,1008.73
2023-02-14T08:43:25.768Z,1008.73
2023-02-14T08:44:26.668Z,1008.7
2023-02-14T08:45:27.684Z,1008.7
2023-02-14T08:46:29.103Z,1008.71
2023-02-14T08:47:30.096Z,1008.71
2023-02-14T08:48:31.011Z,1008.69
2023-02-14T08:49:31.935Z,1008.68
2023-02-14T08:50:33.027Z,1008.65
2023-02-14T08:51:33.976Z,1008.68
2023-02-14T08:52:34.952Z,1008.67
2023-02-14T08:53:35.875Z,1008.6
2023-02-14T08:54:36.792Z,1008.62
2023-02-14T08:55:37.849Z,1008.6
2023-02-14T08:56:39.004Z,1008.58
2023-02-14T08:57:39.937Z,1008.58
2023-02-14T08:58:41.006Z,1008.59
2023-02-14T08:59:41.916Z,1008.57
2023-02-14T09:00:43.142Z,1008.56
2023-02-14T09:01:44.348Z,1008.58
2023-02-14T09:02:45.604Z,1008.56
2023-02-14T09:03:46.982Z,1008.57
2023-02-14T09:04:48.163Z,1008.6
2023-02-14T09:05:49.070Z,1008.57
2023-02-14T09:06:50.037Z,1008.56
2023-02-14T09:07:51.147Z,1008.59
2023-02-14T09:08:52.375Z,1008.59
2023-02-14T09:09:53.403Z,1008.57
2023-02-14T09:10:54.303Z,1008.6
2023-02-14T09:11:55.353Z,1008.56
2023-02-14T09:12:56.321Z,1008.58
2023-02-14T09:13:57.365Z,1008.55
2023-02-14T09:14:58.398Z,1008.52
2023-02-14T09:15:59.886Z,1008.56
2023-02-14T09:17:01.430Z,1008.55
2023-02-14T09:18:02.609Z,1008.48
2023-02-14T09:19:03.979Z,1008.47
2023-02-14T09:20:04.972Z,1008.5
2023-02-14T09:21:05.995Z,1008.5
2023-02-14T09:22:06.893Z,1008.46
2023-02-14T09:23:07.758Z,1008.42
2023-02-14T09:24:08.705Z,1008.38
2023-02-14T09:25:09.601Z,1008.4
2023-02-14T09:26:10.488Z,1008.38
2023-02-14T09:27:11.565Z,1008.4
2023-02-14T09:28:12.553Z,1008.37
2023-02-14T09:29:13.425Z,1008.35
2023-02-14T09:30:14.684Z,1008.3
2023-02-14T09:31:16.302Z,1008.3
2023-02-14T09:32:17.840Z,1008.33
2023-02-14T09:33:18.802Z,1008.27
2023-02-14T09:34:19.708Z,1008.33
2023-02-14T09:35:20.617Z,1008.32
2023-02-14T09:36:21.532Z,1008.32
2023-02-14T09:37:22.427Z,1008.32
2023-02-14T09:38:23.299Z,1008.3
2023-02-14T09:39:24.249Z,1008.31
2023-02-14T09:40:25.274Z,1008.3
2023-02-14T09:41:26.202Z,1008.34
2023-02-14T09:42:27.148Z,1008.3
2023-02-14T09:43:28.021Z,1008.27
2023-02-14T09:44:28.893Z,1008.29
2023-02-14T09:45:30.332Z,1008.29
2023-02-14T09:46:31.400Z,1008.26
2023-02-14T09:47:32.291Z,1008.24
2023-02-14T09:48:33.275Z,1008.23
2023-02-14T09:49:35.068Z,1008.19
2023-02-14T09:50:36.023Z,1008.22
2023-02-14T09:51:37.099Z,1008.21
2023-02-14T09:52:37.995Z,1008.22
2023-02-14T09:53:39.163Z,1008.22
2023-02-14T09:54:40.117Z,1008.17
2023-02-14T09:55:41.052Z,1008.18
2023-02-14T09:56:52.383Z,1008.18
2023-02-14T09:57:43.876Z,1008.14
2023-02-14T09:58:44.838Z,1008.13
2023-02-14T09:59:45.795Z,1008.13
2023-02-14T10:00:47.124Z,1008.14
2023-02-14T10:01:48.303Z,1008.17
2023-02-14T10:02:49.260Z,1008.18
2023-02-14T10:03:50.167Z,1008.17
2023-02-14T10:04:51.057Z,1008.19
2023-02-14T10:05:52.150Z,1008.15
2023-02-14T10:06:53.162Z,1008.13
2023-02-14T10:07:54.052Z,1008.07
2023-02-14T10:08:54.967Z,1008.08
2023-02-14T10:09:55.860Z,1008.06
2023-02-14T10:10:56.769Z,1008.09
2023-02-14T10:11:57.638Z,1008.07
2023-02-14T10:12:58.753Z,1008.11
2023-02-14T10:13:59.751Z,1008.09
2023-02-14T10:15:00.688Z,1008.09
2023-02-14T10:16:01.615Z,1008.09
2023-02-14T10:17:02.514Z,1008.07
2023-02-14T10:18:03.390Z,1008.08
2023-02-14T10:19:04.271Z,1008
2023-02-14T10:20:05.191Z,1008.02
2023-02-14T10:21:06.356Z,1007.98
2023-02-14T10:22:07.249Z,1007.95
2023-02-14T10:23:08.156Z,1007.96
2023-02-14T10:24:09.024Z,1007.89
2023-02-14T10:25:09.937Z,1007.88
2023-02-14T10:26:10.832Z,1007.83
2023-02-14T10:27:11.946Z,1007.85
2023-02-14T10:28:12.850Z,1007.84
2023-02-14T10:29:13.752Z,1007.81
2023-02-14T10:30:14.925Z,1007.81
2023-02-14T10:31:16.404Z,1007.81
2023-02-14T10:32:17.731Z,1007.8
2023-02-14T10:33:18.673Z,1007.86
2023-02-14T10:34:19.567Z,1007.85
2023-02-14T10:35:20.431Z,1007.83
2023-02-14T10:36:21.541Z,1007.82
2023-02-14T10:37:22.483Z,1007.82
2023-02-14T10:38:23.343Z,1007.82
2023-02-14T10:39:24.231Z,1007.8
2023-02-14T10:40:25.104Z,1007.72
2023-02-14T10:41:26.022Z,1007.77
2023-02-14T10:42:27.031Z,1007.76
2023-02-14T10:43:28.411Z,1007.67
2023-02-14T10:44:29.505Z,1007.69
2023-02-14T10:45:30.359Z,1007.69
2023-02-14T10:46:31.690Z,1007.63
2023-02-14T10:47:32.615Z,1007.63
2023-02-14T10:48:33.598Z,1007.62
2023-02-14T10:49:34.487Z,1007.55
2023-02-14T10:50:35.358Z,1007.57
2023-02-14T10:51:36.270Z,1007.57
2023-02-14T10:52:37.122Z,1007.56
2023-02-14T10:53:38.013Z,1007.55
2023-02-14T10:54:38.910Z,1007.58
2023-02-14T10:55:39.803Z,1007.55
2023-02-14T10:56:40.702Z,1007.53
2023-02-14T10:57:41.683Z,1007.53
2023-02-14T10:58:42.602Z,1007.52
2023-02-14T10:59:43.505Z,1007.47
2023-02-14T11:00:44.376Z,1007.45
2023-02-14T11:01:45.772Z,1007.42
2023-02-14T11:02:46.757Z,1007.39
2023-02-14T11:03:48.034Z,1007.4
2023-02-14T11:04:48.916Z,1007.4
2023-02-14T11:05:49.803Z,1007.36
2023-02-14T11:06:50.822Z,1007.33
2023-02-14T11:07:51.716Z,1007.32
2023-02-14T11:08:52.755Z,1007.32
2023-02-14T11:09:53.696Z,1007.34
2023-02-14T11:10:54.649Z,1007.26
2023-02-14T11:11:55.691Z,1007.31
2023-02-14T11:12:56.636Z,1007.28
2023-02-14T11:13:57.493Z,1007.33
2023-02-14T11:14:58.374Z,1007.26
2023-02-14T11:16:00.493Z,1007.29
2023-02-14T11:17:02.036Z,1007.24
2023-02-14T11:18:02.913Z,1007.25
2023-02-14T11:19:03.814Z,1007.22
2023-02-14T11:20:04.689Z,1007.16
2023-02-14T11:21:05.576Z,1007.11
2023-02-14T11:22:06.484Z,1007.11
2023-02-14T11:23:07.365Z,1007.09
2023-02-14T11:24:08.246Z,1007.02
2023-02-14T11:25:09.146Z,1007.01
2023-02-14T11:26:10.075Z,1007.04
2023-02-14T11:27:10.987Z,1007.02
2023-02-14T11:28:11.993Z,1007.06
2023-02-14T11:29:12.839Z,1007.06
2023-02-14T11:30:14.043Z,1007.01
2023-02-14T11:31:15.245Z,1007
2023-02-14T11:32:16.184Z,1007.03
2023-02-14T11:33:17.049Z,1006.97
2023-02-14T11:34:17.909Z,1006.95
2023-02-14T11:35:18.758Z,1006.94
2023-02-14T11:36:19.593Z,1006.92
2023-02-14T11:37:20.431Z,1006.91
2023-02-14T11:38:21.278Z,1006.9
2023-02-14T11:39:22.447Z,1006.85
2023-02-14T11:40:23.683Z,1006.86
2023-02-14T11:41:26.344Z,1006.78
2023-02-14T11:42:27.241Z,1006.74
2023-02-14T11:43:28.221Z,1006.69
2023-02-14T11:44:29.107Z,1006.69
2023-02-14T11:45:29.990Z,1006.71
2023-02-14T11:46:41.364Z,1006.67
2023-02-14T11:47:32.746Z,1006.7
2023-02-14T11:48:39.822Z,1006.64
2023-02-14T11:49:34.345Z,1006.65
2023-02-14T11:50:35.222Z,1006.64
2023-02-14T11:51:36.109Z,1006.57
2023-02-14T11:52:37.023Z,1006.56
2023-02-14T11:53:37.922Z,1006.55
2023-02-14T11:54:38.783Z,1006.5
2023-02-14T11:55:39.636Z,1006.5
2023-02-14T11:56:40.516Z,1006.46
2023-02-14T11:57:41.371Z,1006.49
2023-02-14T11:58:42.393Z,1006.44
2023-02-14T11:59:43.280Z,1006.41
2023-02-14T12:00:44.147Z,1006.44
2023-02-14T12:01:44.992Z,1006.39
2023-02-14T12:02:45.986Z,1006.35
2023-02-14T12:03:47.214Z,1006.35
2023-02-14T12:04:48.145Z,1006.39
2023-02-14T12:05:49.039Z,1006.33
2023-02-14T12:06:49.924Z,1006.35
2023-02-14T12:07:51.098Z,1006.33
2023-02-14T12:08:52.000Z,1006.3
2023-02-14T12:09:52.892Z,1006.31
2023-02-14T12:10:53.785Z,1006.28
2023-02-14T12:11:54.650Z,1006.29
2023-02-14T12:12:55.563Z,1006.28
2023-02-14T12:13:56.712Z,1006.21
2023-02-14T12:14:57.648Z,1006.2
2023-02-14T12:15:58.774Z,1006.21
2023-02-14T12:16:59.683Z,1006.18
2023-02-14T12:18:00.698Z,1006.14
2023-02-14T12:19:01.556Z,1006.08
2023-02-14T12:20:02.448Z,1006.06
2023-02-14T12:21:03.602Z,1006
2023-02-14T12:22:04.470Z,1006.03
2023-02-14T12:23:05.343Z,1005.99